Time;durP1;ratioP1;P1;durP2;ratioP2;P2;SDS_P1;SDS_P2;PMS_P1;PMS_P2;Temp;Humidity;BMP_temperature;BMP_pressure;BME280_temperature;BME280_humidity;BME280_pressure;Samples;Min_cycle;Max_cycle;Signal;HPM_P1;HPM_P2
2022/01/31 00:01:45;;;;;;;12.30;3.00;;;3.70;99.90;;;;;;7393263;19;20347;-79
2022/01/31 00:04:11;;;;;;;6.30;2.97;;;3.70;99.90;;;;;;7394119;19;20455;-78
2022/01/31 00:06:37;;;;;;;4.87;2.57;;;3.70;99.90;;;;;;7394177;19;20345;-82
2022/01/31 00:09:03;;;;;;;4.73;2.50;;;3.60;99.90;;;;;;7394903;19;20373;-77
2022/01/31 00:11:29;;;;;;;3.00;2.38;;;3.60;99.90;;;;;;7391572;19;20332;-77
2022/01/31 00:14:10;;;;;;;7.72;2.95;;;3.60;99.90;;;;;;7392158;19;20332;-79
2022/01/31 00:16:35;;;;;;;5.80;2.75;;;3.60;99.90;;;;;;7392876;19;20384;-79
2022/01/31 00:19:01;;;;;;;4.30;2.57;;;3.60;99.90;;;;;;7393918;19;20342;-78
2022/01/31 00:21:27;;;;;;;8.27;2.92;;;3.60;99.90;;;;;;7392920;19;20324;-79
2022/01/31 00:23:53;;;;;;;6.05;2.42;;;3.60;99.90;;;;;;7391100;19;20368;-79
2022/01/31 00:26:18;;;;;;;5.05;2.22;;;3.60;99.90;;;;;;7394015;19;20317;-79
2022/01/31 00:28:44;;;;;;;7.87;2.60;;;3.70;99.90;;;;;;7392685;19;20392;-81
2022/01/31 00:31:10;;;;;;;5.28;2.63;;;3.60;99.90;;;;;;7393476;19;20309;-79
2022/01/31 00:33:36;;;;;;;6.22;2.67;;;3.60;99.90;;;;;;7390311;19;20359;-78
2022/01/31 00:36:01;;;;;;;7.80;2.53;;;3.60;99.90;;;;;;7389962;19;20316;-80
2022/01/31 00:38:29;;;;;;;3.92;2.38;;;3.70;99.90;;;;;;7393725;19;20339;-78
2022/01/31 00:40:55;;;;;;;4.80;2.70;;;3.60;99.90;;;;;;7392788;19;20371;-79
2022/01/31 00:43:22;;;;;;;4.60;2.33;;;3.60;99.90;;;;;;7394922;19;20321;-78
2022/01/31 00:45:59;;;;;;;6.90;2.70;;;3.60;99.90;;;;;;7392319;19;20319;-80
2022/01/31 00:48:26;;;;;;;6.45;2.53;;;3.50;99.90;;;;;;7397886;19;20431;-80
2022/01/31 00:50:52;;;;;;;8.75;3.10;;;3.50;99.90;;;;;;7404975;19;20811;-85
2022/01/31 00:53:18;;;;;;;6.37;2.63;;;3.50;99.90;;;;;;7395119;19;20348;-81
2022/01/31 00:55:44;;;;;;;5.60;2.65;;;3.50;99.90;;;;;;7390476;19;20317;-79
2022/01/31 00:58:10;;;;;;;3.47;2.30;;;3.50;99.90;;;;;;7395288;19;20319;-78
2022/01/31 01:00:36;;;;;;;6.00;2.50;;;3.50;99.90;;;;;;7391545;19;20367;-77
2022/01/31 01:03:03;;;;;;;4.15;2.80;;;3.50;99.90;;;;;;7390602;19;20428;-78
2022/01/31 01:05:29;;;;;;;5.10;2.60;;;3.50;99.90;;;;;;7389736;19;20345;-77
2022/01/31 01:07:55;;;;;;;5.07;2.78;;;3.40;99.90;;;;;;7393906;19;20308;-79
2022/01/31 01:10:21;;;;;;;5.72;2.70;;;3.40;99.90;;;;;;7391541;19;20357;-81
2022/01/31 01:12:47;;;;;;;7.47;2.80;;;3.40;99.90;;;;;;7391967;19;20313;-78
2022/01/31 01:15:13;;;;;;;3.95;2.65;;;3.40;99.90;;;;;;7389326;19;20320;-81
2022/01/31 01:17:38;;;;;;;11.35;3.10;;;3.30;99.90;;;;;;7390599;19;20340;-79
2022/01/31 01:20:04;;;;;;;7.80;3.38;;;3.30;99.90;;;;;;7391479;19;20301;-79
2022/01/31 01:22:30;;;;;;;8.23;3.40;;;3.30;99.90;;;;;;7392032;19;20863;-78
2022/01/31 01:24:57;;;;;;;4.30;2.92;;;3.30;99.90;;;;;;7391538;19;20851;-81
2022/01/31 01:27:23;;;;;;;5.10;2.85;;;3.30;99.90;;;;;;7387289;19;20325;-78
2022/01/31 01:29:50;;;;;;;9.07;3.38;;;3.30;99.90;;;;;;7376782;19;20325;-79
2022/01/31 01:32:17;;;;;;;9.77;3.00;;;3.40;99.90;;;;;;7391226;19;20316;-80
2022/01/31 01:34:44;;;;;;;7.15;2.88;;;3.30;99.90;;;;;;7391594;19;20346;-78
2022/01/31 01:37:10;;;;;;;8.13;3.00;;;3.30;99.90;;;;;;7394323;19;20309;-79
2022/01/31 01:39:35;;;;;;;7.63;3.38;;;3.30;99.90;;;;;;7393274;19;20411;-79
2022/01/31 01:42:01;;;;;;;8.05;3.10;;;3.20;99.90;;;;;;7398593;19;20883;-79
2022/01/31 01:44:48;;;;;;;6.50;3.10;;;3.20;99.90;;;;;;7395220;19;20352;-80
2022/01/31 01:47:22;;;;;;;9.70;2.85;;;3.20;99.90;;;;;;7286691;19;2006150;-78
2022/01/31 01:49:49;;;;;;;5.50;2.83;;;3.20;99.90;;;;;;7388937;19;20313;-78
2022/01/31 01:52:17;;;;;;;7.63;2.90;;;3.20;99.90;;;;;;7385302;19;20317;-78
2022/01/31 01:54:45;;;;;;;5.50;2.95;;;3.10;99.90;;;;;;7390087;19;20414;-78
2022/01/31 01:57:10;;;;;;;5.55;3.00;;;3.20;99.90;;;;;;7388606;19;20400;-77
2022/01/31 01:59:38;;;;;;;8.55;3.45;;;3.20;99.90;;;;;;7389555;19;20343;-79
2022/01/31 02:02:22;;;;;;;7.27;2.90;;;3.20;99.90;;;;;;7369337;19;20324;-78
2022/01/31 02:04:49;;;;;;;4.00;2.75;;;3.20;99.90;;;;;;7386940;19;20313;-79
2022/01/31 02:07:29;;;;;;;5.68;2.80;;;3.10;99.90;;;;;;7389433;19;21236;-78
2022/01/31 02:09:56;;;;;;;6.22;2.90;;;3.20;99.90;;;;;;7389363;19;20320;-80
2022/01/31 02:12:24;;;;;;;5.93;3.15;;;3.20;99.90;;;;;;7391420;19;20455;-80
2022/01/31 02:14:49;;;;;;;6.95;2.88;;;3.20;99.90;;;;;;7387850;19;20324;-80
2022/01/31 02:17:41;;;;;;;6.57;3.05;;;3.20;99.90;;;;;;7284725;19;2004609;-78
2022/01/31 02:20:13;;;;;;;5.95;3.03;;;3.10;99.90;;;;;;7389026;19;20320;-79
2022/01/31 02:22:38;;;;;;;7.82;3.30;;;3.20;99.90;;;;;;7391577;19;20340;-79
2022/01/31 02:25:17;;;;;;;6.90;3.00;;;3.20;99.90;;;;;;7390626;19;21177;-78
2022/01/31 02:28:01;;;;;;;5.53;2.92;;;3.10;99.90;;;;;;7392996;19;20322;-81
2022/01/31 02:30:27;;;;;;;6.60;3.03;;;3.10;99.90;;;;;;7396429;19;20718;-79
2022/01/31 02:32:53;;;;;;;9.00;2.90;;;3.10;99.90;;;;;;7401275;19;20416;-78
2022/01/31 02:35:19;;;;;;;4.80;2.75;;;3.10;99.90;;;;;;7402488;19;20452;-85
2022/01/31 02:37:44;;;;;;;7.85;3.22;;;3.10;99.90;;;;;;7390379;19;20692;-81
2022/01/31 02:40:19;;;;;;;6.87;3.30;;;3.10;99.90;;;;;;7387596;19;20411;-80
2022/01/31 02:42:45;;;;;;;9.15;3.40;;;3.10;99.90;;;;;;7386781;19;20353;-80
2022/01/31 02:45:11;;;;;;;4.78;2.72;;;3.10;99.90;;;;;;7389073;19;20325;-80
2022/01/31 02:47:40;;;;;;;8.97;3.47;;;3.00;99.90;;;;;;7390647;19;20300;-78
2022/01/31 02:50:08;;;;;;;5.68;2.75;;;3.10;99.90;;;;;;7390457;19;20473;-78
2022/01/31 02:52:36;;;;;;;6.43;3.22;;;3.10;99.90;;;;;;7392523;19;20328;-80
2022/01/31 02:55:04;;;;;;;10.07;3.15;;;3.10;99.90;;;;;;7389239;19;20437;-78
2022/01/31 02:57:29;;;;;;;5.80;3.08;;;3.10;99.90;;;;;;7387269;19;20344;-78
2022/01/31 02:59:55;;;;;;;5.60;3.13;;;3.10;99.90;;;;;;7386091;19;20360;-78
2022/01/31 03:02:23;;;;;;;5.03;2.77;;;3.10;99.90;;;;;;7388188;19;20860;-79
2022/01/31 03:04:49;;;;;;;5.53;2.93;;;3.20;99.90;;;;;;7387874;19;20352;-79
2022/01/31 03:07:15;;;;;;;5.85;3.03;;;3.10;99.90;;;;;;7388003;19;20320;-80
2022/01/31 03:09:41;;;;;;;5.47;2.63;;;3.10;99.90;;;;;;7384644;19;20340;-79
2022/01/31 03:12:14;;;;;;;5.47;2.95;;;3.00;99.90;;;;;;7390153;19;20360;-77
2022/01/31 03:14:45;;;;;;;8.60;3.00;;;3.00;99.90;;;;;;7374268;19;20317;-83
2022/01/31 03:17:31;;;;;;;11.45;3.50;;;3.10;99.90;;;;;;7401163;19;20331;-82
2022/01/31 03:19:57;;;;;;;6.90;3.00;;;3.10;99.90;;;;;;7392191;19;20325;-80
2022/01/31 03:22:24;;;;;;;6.18;3.38;;;3.10;99.90;;;;;;7394216;19;20309;-79
2022/01/31 03:24:50;;;;;;;8.53;2.80;;;3.10;99.90;;;;;;7401807;19;20317;-83
2022/01/31 03:27:16;;;;;;;4.80;2.78;;;3.10;99.90;;;;;;7398608;19;20419;-80
2022/01/31 03:29:42;;;;;;;6.75;3.30;;;3.00;99.90;;;;;;7391157;19;20305;-79
2022/01/31 03:32:07;;;;;;;6.93;3.50;;;3.00;99.90;;;;;;7389246;19;20347;-80
2022/01/31 03:34:33;;;;;;;7.83;3.40;;;3.00;99.90;;;;;;7391678;19;20936;-79
2022/01/31 03:36:59;;;;;;;6.33;3.13;;;3.00;99.90;;;;;;7397903;19;20368;-78
2022/01/31 03:39:26;;;;;;;6.05;2.88;;;3.00;99.90;;;;;;7398489;19;20324;-79
2022/01/31 03:41:52;;;;;;;8.37;3.27;;;3.00;99.90;;;;;;7395341;19;20300;-79
2022/01/31 03:44:18;;;;;;;5.57;2.80;;;3.00;99.90;;;;;;7395952;19;20312;-79
2022/01/31 03:46:45;;;;;;;9.32;3.38;;;3.00;99.90;;;;;;7396090;19;20362;-79
2022/01/31 03:49:11;;;;;;;11.57;3.38;;;3.00;99.90;;;;;;7397881;19;20393;-78
2022/01/31 03:51:41;;;;;;;5.38;3.58;;;2.90;99.90;;;;;;7393997;19;20312;-78
2022/01/31 03:54:07;;;;;;;9.32;3.92;;;2.90;99.90;;;;;;7394983;19;20677;-81
2022/01/31 03:56:33;;;;;;;6.30;3.33;;;2.90;99.90;;;;;;7397081;19;20348;-78
2022/01/31 03:59:11;;;;;;;10.73;3.72;;;2.90;99.90;;;;;;7396003;19;20399;-81
2022/01/31 04:01:37;;;;;;;8.70;3.50;;;3.00;99.90;;;;;;7397346;19;20313;-79
2022/01/31 04:04:05;;;;;;;6.00;3.40;;;2.90;99.90;;;;;;7397620;19;20320;-77
2022/01/31 04:06:31;;;;;;;7.13;3.33;;;2.90;99.90;;;;;;7405088;19;20325;-81
2022/01/31 04:08:56;;;;;;;9.98;3.50;;;2.90;99.90;;;;;;7407059;19;20324;-80
2022/01/31 04:11:22;;;;;;;5.63;3.40;;;2.90;99.90;;;;;;7400030;19;20319;-80
2022/01/31 04:13:47;;;;;;;7.38;3.17;;;2.90;99.90;;;;;;7401023;19;20305;-80
2022/01/31 04:16:13;;;;;;;8.17;3.57;;;2.90;99.90;;;;;;7406131;19;20297;-81
2022/01/31 04:18:39;;;;;;;9.43;3.38;;;2.90;99.90;;;;;;7411410;19;20376;-79
2022/01/31 04:21:04;;;;;;;7.47;3.63;;;2.90;99.90;;;;;;7387367;19;20380;-79
2022/01/31 04:23:30;;;;;;;6.33;2.93;;;2.90;99.90;;;;;;7391856;19;20350;-78
2022/01/31 04:26:03;;;;;;;6.45;3.20;;;2.90;99.90;;;;;;7388768;19;20835;-78
2022/01/31 04:28:44;;;;;;;7.50;3.88;;;2.90;99.90;;;;;;7392243;19;20891;-79
2022/01/31 04:33:45;;;;;;;6.65;3.03;;;3.00;99.90;;;;;;7395802;19;20386;-79
2022/01/31 04:36:11;;;;;;;12.33;3.47;;;2.90;99.90;;;;;;7397638;19;20305;-84
2022/01/31 04:38:37;;;;;;;6.63;3.13;;;2.90;99.90;;;;;;7398487;19;20327;-77
2022/01/31 04:41:03;;;;;;;6.70;3.20;;;3.00;99.90;;;;;;7394833;19;20300;-78
2022/01/31 04:43:28;;;;;;;7.82;3.58;;;2.90;99.90;;;;;;7391113;19;20313;-79
2022/01/31 04:45:56;;;;;;;7.63;3.25;;;2.90;99.90;;;;;;7388684;19;20360;-79
2022/01/31 04:48:22;;;;;;;7.07;3.30;;;2.90;99.90;;;;;;7391709;19;20341;-78
2022/01/31 04:50:47;;;;;;;6.17;3.07;;;2.80;99.90;;;;;;7388355;19;20305;-78
2022/01/31 04:53:13;;;;;;;10.00;3.35;;;2.90;99.90;;;;;;7391541;19;20851;-79
2022/01/31 04:55:39;;;;;;;7.33;3.53;;;2.80;99.90;;;;;;7393559;19;21002;-81
2022/01/31 04:58:05;;;;;;;7.40;3.42;;;2.80;99.90;;;;;;7392484;19;21112;-79
2022/01/31 05:00:30;;;;;;;8.75;3.60;;;2.80;99.90;;;;;;7380998;19;20357;-80
2022/01/31 05:02:56;;;;;;;3.87;2.47;;;2.80;99.90;;;;;;7391203;19;20308;-80
2022/01/31 05:05:22;;;;;;;6.53;3.50;;;2.80;99.90;;;;;;7387024;19;20348;-82
2022/01/31 05:07:48;;;;;;;5.97;2.90;;;2.80;99.90;;;;;;7393445;19;20320;-81
2022/01/31 05:10:14;;;;;;;8.50;3.47;;;2.80;99.90;;;;;;7395247;19;20364;-80
2022/01/31 05:12:40;;;;;;;8.50;3.15;;;2.80;99.90;;;;;;7391714;19;20923;-79
2022/01/31 05:15:06;;;;;;;5.45;3.28;;;2.80;99.90;;;;;;7390068;19;20324;-77
2022/01/31 05:17:32;;;;;;;9.90;5.38;;;2.80;99.90;;;;;;7393933;19;20685;-77
2022/01/31 05:19:57;;;;;;;5.27;2.97;;;2.80;99.90;;;;;;7392594;19;20293;-78
2022/01/31 05:22:23;;;;;;;7.07;3.55;;;2.80;99.90;;;;;;7394035;19;20352;-79
2022/01/31 05:24:48;;;;;;;8.40;3.37;;;2.80;99.90;;;;;;7389168;19;20313;-77
2022/01/31 05:27:14;;;;;;;12.55;3.60;;;2.80;99.90;;;;;;7393165;19;20332;-77
2022/01/31 05:29:40;;;;;;;5.93;2.90;;;2.70;99.90;;;;;;7389068;19;20878;-80
2022/01/31 05:32:06;;;;;;;8.60;3.38;;;2.70;99.90;;;;;;7398726;19;20694;-79
2022/01/31 05:34:31;;;;;;;6.10;2.55;;;2.70;99.90;;;;;;7403384;19;20854;-79
2022/01/31 05:36:57;;;;;;;9.83;6.10;;;2.80;99.90;;;;;;7394140;19;20341;-80
2022/01/31 05:39:26;;;;;;;7.47;3.43;;;2.80;99.90;;;;;;7392786;19;20344;-77
2022/01/31 05:41:52;;;;;;;6.55;2.97;;;2.80;99.90;;;;;;7389318;19;20319;-80
2022/01/31 05:44:18;;;;;;;5.57;3.20;;;2.80;99.90;;;;;;7386185;19;20320;-78
2022/01/31 05:46:43;;;;;;;7.03;3.30;;;2.80;99.90;;;;;;7390327;19;20335;-78
2022/01/31 05:49:09;;;;;;;6.20;3.00;;;2.80;99.90;;;;;;7388158;19;20305;-80
2022/01/31 05:51:35;;;;;;;4.45;2.72;;;2.70;99.90;;;;;;7386576;19;20384;-78
2022/01/31 05:54:00;;;;;;;7.73;3.70;;;2.70;99.90;;;;;;7388998;19;20845;-78
2022/01/31 05:56:26;;;;;;;5.95;2.83;;;2.70;99.90;;;;;;7389059;19;20321;-77
2022/01/31 05:58:51;;;;;;;8.70;3.23;;;2.70;99.90;;;;;;7396990;19;20328;-79
2022/01/31 06:01:17;;;;;;;5.60;3.30;;;2.70;99.90;;;;;;7395712;19;20661;-78
2022/01/31 06:03:43;;;;;;;6.20;3.10;;;2.70;99.90;;;;;;7393441;19;20328;-77
2022/01/31 06:06:08;;;;;;;6.63;2.90;;;2.70;99.90;;;;;;7389644;19;20324;-78
2022/01/31 06:08:34;;;;;;;5.97;2.85;;;2.60;99.90;;;;;;7387506;19;20321;-79
2022/01/31 06:11:00;;;;;;;10.60;3.70;;;2.60;99.90;;;;;;7385774;19;20324;-77
2022/01/31 06:13:31;;;;;;;5.38;3.25;;;2.50;99.90;;;;;;7388167;19;20316;-78
2022/01/31 06:15:57;;;;;;;7.05;3.42;;;2.60;99.90;;;;;;7372940;19;20329;-78
2022/01/31 06:18:23;;;;;;;9.60;3.23;;;2.60;99.90;;;;;;7390377;19;20320;-78
2022/01/31 06:20:48;;;;;;;8.38;3.70;;;2.60;99.90;;;;;;7389855;19;20316;-80
2022/01/31 06:23:14;;;;;;;9.60;3.50;;;2.60;99.90;;;;;;7390976;19;20344;-80
2022/01/31 06:25:40;;;;;;;9.35;3.72;;;2.60;99.90;;;;;;7387840;19;20349;-79
2022/01/31 06:28:06;;;;;;;7.22;3.35;;;2.60;99.90;;;;;;7392492;19;20312;-79
2022/01/31 06:30:33;;;;;;;14.05;3.65;;;2.60;99.90;;;;;;7386685;19;21112;-80
2022/01/31 06:32:58;;;;;;;7.00;2.83;;;2.60;99.90;;;;;;7388787;19;20325;-79
2022/01/31 06:35:24;;;;;;;7.15;3.40;;;2.60;99.90;;;;;;7389818;19;20962;-79
2022/01/31 06:37:50;;;;;;;4.40;2.80;;;2.60;99.90;;;;;;7393960;19;20305;-79
2022/01/31 06:40:16;;;;;;;10.88;4.07;;;2.60;99.90;;;;;;7391406;19;20340;-79
2022/01/31 06:42:42;;;;;;;4.40;2.77;;;2.50;99.90;;;;;;7391213;19;20364;-81
2022/01/31 06:45:08;;;;;;;6.17;3.07;;;2.50;99.90;;;;;;7375992;19;20325;-79
2022/01/31 06:47:33;;;;;;;8.70;3.28;;;2.50;99.90;;;;;;7393272;19;20324;-82
2022/01/31 06:49:59;;;;;;;8.07;3.55;;;2.40;99.90;;;;;;7397839;19;20320;-80
2022/01/31 06:52:32;;;;;;;6.90;3.60;;;2.40;99.90;;;;;;7392193;19;20392;-80
2022/01/31 06:55:02;;;;;;;7.47;3.17;;;2.40;99.90;;;;;;7390551;19;20313;-81
2022/01/31 06:57:33;;;;;;;9.75;3.30;;;2.40;99.90;;;;;;7387465;19;20349;-79
2022/01/31 07:00:06;;;;;;;8.75;4.63;;;2.40;99.90;;;;;;7398445;19;20317;-80
2022/01/31 07:02:32;;;;;;;9.25;5.20;;;2.40;99.90;;;;;;7405395;19;20329;-81
2022/01/31 07:05:00;;;;;;;10.65;5.63;;;2.40;99.90;;;;;;7396996;19;20644;-82
2022/01/31 07:07:26;;;;;;;12.23;5.35;;;2.40;99.90;;;;;;7392001;19;20321;-79
2022/01/31 07:09:51;;;;;;;13.07;6.72;;;2.40;99.90;;;;;;7396000;19;20341;-79
2022/01/31 07:12:17;;;;;;;9.23;4.27;;;2.40;99.90;;;;;;7398302;19;20307;-81
2022/01/31 07:14:43;;;;;;;6.40;3.53;;;2.40;99.90;;;;;;7395847;19;20328;-78
2022/01/31 07:17:09;;;;;;;9.13;3.38;;;2.40;99.90;;;;;;7396463;19;20312;-80
2022/01/31 07:19:37;;;;;;;10.35;3.25;;;2.40;99.90;;;;;;7395015;19;20309;-80
2022/01/31 07:22:07;;;;;;;6.55;3.30;;;2.40;99.90;;;;;;7393431;19;20305;-79
2022/01/31 07:27:01;;;;;;;10.53;3.20;;;2.30;99.90;;;;;;7396225;19;20336;-80
2022/01/31 07:29:26;;;;;;;6.15;2.95;;;2.30;99.90;;;;;;7393358;19;20414;-79
2022/01/31 07:31:52;;;;;;;4.68;2.70;;;2.40;99.90;;;;;;7396067;19;20316;-80
2022/01/31 07:34:18;;;;;;;5.47;2.97;;;2.30;99.90;;;;;;7395809;19;20906;-79
2022/01/31 07:36:44;;;;;;;11.87;3.80;;;2.30;99.90;;;;;;7397396;19;20708;-79
2022/01/31 07:39:10;;;;;;;9.82;3.10;;;2.40;99.90;;;;;;7403361;19;20398;-79
2022/01/31 07:41:36;;;;;;;8.80;3.13;;;2.30;99.90;;;;;;7400256;19;20304;-81
2022/01/31 07:44:02;;;;;;;10.73;3.63;;;2.40;99.90;;;;;;7395896;19;20787;-80
2022/01/31 07:46:27;;;;;;;5.93;2.97;;;2.40;99.90;;;;;;7396175;19;20367;-79
2022/01/31 07:48:54;;;;;;;8.85;3.55;;;2.40;99.90;;;;;;7394075;19;20378;-78
2022/01/31 07:51:20;;;;;;;8.43;3.85;;;2.40;99.90;;;;;;7396786;19;20668;-81
2022/01/31 07:53:46;;;;;;;5.50;2.85;;;2.40;99.90;;;;;;7394195;19;20316;-79
2022/01/31 07:56:14;;;;;;;9.87;3.63;;;2.40;99.90;;;;;;7396304;19;20300;-79
2022/01/31 07:58:40;;;;;;;3.70;2.95;;;2.40;99.90;;;;;;7396356;19;20320;-79
2022/01/31 08:01:05;;;;;;;7.07;3.70;;;2.40;99.90;;;;;;7394787;19;20293;-80
2022/01/31 08:03:31;;;;;;;9.07;3.10;;;2.40;99.90;;;;;;7395482;19;20340;-81
2022/01/31 08:05:57;;;;;;;6.50;3.28;;;2.40;99.90;;;;;;7394471;19;20332;-79
2022/01/31 08:08:24;;;;;;;8.70;3.33;;;2.50;99.90;;;;;;7396571;19;20348;-80
2022/01/31 08:10:51;;;;;;;3.45;2.67;;;2.50;99.90;;;;;;7393798;19;20333;-80
2022/01/31 08:13:16;;;;;;;7.50;3.55;;;2.50;99.90;;;;;;7387679;19;20412;-80
2022/01/31 08:16:00;;;;;;;7.63;3.40;;;2.50;99.90;;;;;;7390039;19;20318;-80
2022/01/31 08:18:26;;;;;;;6.03;3.03;;;2.60;99.90;;;;;;7288237;19;2012339;-79
2022/01/31 08:20:51;;;;;;;6.93;2.80;;;2.60;99.90;;;;;;7390203;19;20360;-84
2022/01/31 08:23:17;;;;;;;7.23;3.40;;;2.60;99.90;;;;;;7389362;19;20341;-80
2022/01/31 08:25:48;;;;;;;8.95;4.15;;;2.70;99.90;;;;;;7392121;19;20895;-79
2022/01/31 08:28:14;;;;;;;7.03;3.67;;;2.80;99.90;;;;;;7393987;19;20320;-83
2022/01/31 08:30:58;;;;;;;9.50;3.65;;;2.70;99.90;;;;;;7382934;19;20333;-80
2022/01/31 08:33:39;;;;;;;4.75;2.80;;;2.70;99.90;;;;;;7392471;19;20355;-80
2022/01/31 08:36:06;;;;;;;4.88;3.13;;;2.80;99.90;;;;;;7392799;19;20308;-79
2022/01/31 08:38:32;;;;;;;6.22;3.28;;;2.80;99.90;;;;;;7391562;19;20347;-80
2022/01/31 08:40:58;;;;;;;8.65;4.03;;;2.90;99.90;;;;;;7394842;19;20320;-80
2022/01/31 08:43:24;;;;;;;6.78;3.50;;;2.90;99.90;;;;;;7394840;19;20396;-80
2022/01/31 08:45:50;;;;;;;7.88;4.25;;;3.00;99.90;;;;;;7391155;19;20309;-80
2022/01/31 08:48:16;;;;;;;4.65;2.88;;;3.10;99.90;;;;;;7393537;19;20292;-82
2022/01/31 08:50:42;;;;;;;9.50;3.50;;;3.10;99.90;;;;;;7390449;19;20345;-80
2022/01/31 08:53:08;;;;;;;6.95;3.25;;;3.20;99.90;;;;;;7390050;19;20340;-80
2022/01/31 08:55:35;;;;;;;10.80;3.90;;;3.30;99.90;;;;;;7390618;19;20836;-81
2022/01/31 08:58:00;;;;;;;9.82;3.63;;;3.40;99.90;;;;;;7391391;19;20321;-80
2022/01/31 09:00:33;;;;;;;6.63;3.50;;;3.40;99.90;;;;;;7388525;19;20345;-81
2022/01/31 09:03:16;;;;;;;8.32;3.67;;;3.40;99.90;;;;;;7370468;19;20309;-79
2022/01/31 09:05:42;;;;;;;9.35;3.88;;;3.40;99.90;;;;;;7281312;19;2004973;-80
2022/01/31 09:08:07;;;;;;;7.35;3.63;;;3.50;99.90;;;;;;7387896;19;20316;-79
2022/01/31 09:10:34;;;;;;;7.53;3.97;;;3.50;99.90;;;;;;7385654;19;20343;-79
2022/01/31 09:12:59;;;;;;;10.18;4.10;;;3.50;99.90;;;;;;7388132;19;20320;-80
2022/01/31 09:15:25;;;;;;;11.13;3.83;;;3.40;99.90;;;;;;7389370;19;20634;-82
2022/01/31 09:17:51;;;;;;;8.25;3.30;;;3.40;99.90;;;;;;7395399;19;20325;-80
2022/01/31 09:20:17;;;;;;;8.20;3.53;;;3.40;99.90;;;;;;7397345;19;20296;-80
2022/01/31 09:22:43;;;;;;;4.77;2.87;;;3.50;99.90;;;;;;7389978;19;20340;-81
2022/01/31 09:25:10;;;;;;;8.77;3.93;;;3.50;99.90;;;;;;7389666;19;20308;-79
2022/01/31 09:27:36;;;;;;;10.93;3.83;;;3.50;99.90;;;;;;7393431;19;20324;-81
2022/01/31 09:30:06;;;;;;;5.53;3.22;;;3.50;99.90;;;;;;7387723;19;20751;-82
2022/01/31 09:32:32;;;;;;;8.82;4.15;;;3.50;99.90;;;;;;7390169;19;20296;-80
2022/01/31 09:34:57;;;;;;;5.05;3.28;;;3.40;99.90;;;;;;7391730;19;20313;-80
2022/01/31 09:37:23;;;;;;;6.50;3.17;;;3.40;99.90;;;;;;7369120;19;20325;-80
2022/01/31 09:39:49;;;;;;;6.60;3.87;;;3.50;99.90;;;;;;7390646;19;20337;-80
2022/01/31 09:42:24;;;;;;;8.17;4.13;;;3.40;99.90;;;;;;7391242;19;20312;-78
2022/01/31 09:45:17;;;;;;;6.65;3.53;;;3.50;99.90;;;;;;7392443;19;20344;-81
2022/01/31 09:50:23;;;;;;;5.30;3.28;;;3.50;99.90;;;;;;7285132;19;2009129;-82
2022/01/31 09:52:49;;;;;;;8.10;3.67;;;3.50;99.90;;;;;;7392180;19;20305;-80
2022/01/31 09:55:15;;;;;;;9.40;3.60;;;3.50;99.90;;;;;;7383616;19;20347;-85
2022/01/31 09:57:41;;;;;;;7.67;3.60;;;3.60;99.90;;;;;;7396969;19;20333;-79
2022/01/31 10:00:07;;;;;;;10.73;3.70;;;3.60;99.90;;;;;;7386788;19;21232;-80
2022/01/31 10:02:39;;;;;;;7.53;3.80;;;3.80;99.90;;;;;;7387349;19;20344;-79
2022/01/31 10:05:04;;;;;;;7.10;3.67;;;3.90;99.90;;;;;;7387927;19;20329;-79
2022/01/31 10:07:44;;;;;;;8.13;3.40;;;4.00;99.90;;;;;;7384402;19;20301;-84
2022/01/31 10:10:24;;;;;;;9.65;4.03;;;4.10;99.90;;;;;;7386721;19;20384;-80
2022/01/31 10:18:06;;;;;;;6.18;3.42;;;4.40;99.90;;;;;;7289710;19;2005063;-80
2022/01/31 10:20:32;;;;;;;6.18;3.47;;;4.40;99.90;;;;;;7384012;19;20341;-80
2022/01/31 10:23:14;;;;;;;7.80;3.30;;;4.50;99.90;;;;;;7389868;19;20309;-80
2022/01/31 10:25:39;;;;;;;7.28;3.75;;;4.60;99.90;;;;;;7385856;19;20353;-81
2022/01/31 10:28:16;;;;;;;8.10;3.70;;;4.60;99.90;;;;;;7386736;19;20310;-81
2022/01/31 10:30:43;;;;;;;5.40;3.70;;;4.70;99.90;;;;;;7286302;19;2004387;-81
2022/01/31 10:33:09;;;;;;;8.85;3.40;;;4.80;99.90;;;;;;7386241;19;20392;-82
2022/01/31 10:35:38;;;;;;;7.82;3.58;;;4.80;99.90;;;;;;7381954;19;20384;-79
2022/01/31 10:38:09;;;;;;;5.43;3.30;;;4.80;99.90;;;;;;7388013;19;20397;-80
2022/01/31 10:54:15;;;;;;;10.57;3.63;;;5.10;99.90;;;;;;7387820;19;20727;-82
2022/01/31 10:56:44;;;;;;;8.02;3.45;;;5.20;99.90;;;;;;7388560;19;20372;-82
2022/01/31 10:59:21;;;;;;;7.50;3.22;;;5.40;99.90;;;;;;7390508;19;20306;-83
2022/01/31 11:01:48;;;;;;;11.47;4.03;;;5.30;99.90;;;;;;7392915;19;20739;-85
2022/01/31 11:04:15;;;;;;;5.70;2.75;;;5.50;99.90;;;;;;7390228;19;20357;-82
2022/01/31 11:06:47;;;;;;;6.43;3.40;;;5.50;99.90;;;;;;7389151;19;20352;-81
2022/01/31 11:09:14;;;;;;;4.53;3.40;;;5.50;99.90;;;;;;7389353;19;20338;-82
2022/01/31 11:11:41;;;;;;;6.93;2.85;;;5.60;99.90;;;;;;7389132;19;20763;-81
2022/01/31 11:14:08;;;;;;;5.38;3.08;;;5.70;99.90;;;;;;7389243;19;20340;-82
2022/01/31 11:16:34;;;;;;;8.48;3.35;;;5.80;99.90;;;;;;7389524;19;20335;-81
2022/01/31 11:19:02;;;;;;;10.25;3.67;;;5.90;99.90;;;;;;7390146;19;20325;-82
2022/01/31 11:21:31;;;;;;;5.22;3.33;;;5.80;99.90;;;;;;7402346;19;20348;-83
2022/01/31 11:24:02;;;;;;;4.88;2.88;;;5.70;99.90;;;;;;7389392;19;20309;-81
2022/01/31 11:26:36;;;;;;;5.55;3.47;;;5.40;99.90;;;;;;7387633;19;20344;-81
2022/01/31 11:29:02;;;;;;;6.53;2.92;;;5.40;99.90;;;;;;7389258;19;20316;-81
2022/01/31 11:31:28;;;;;;;7.22;2.90;;;5.40;99.90;;;;;;7386724;19;20892;-82
2022/01/31 11:33:56;;;;;;;6.10;3.03;;;5.40;99.90;;;;;;7385293;19;21324;-84
2022/01/31 11:36:22;;;;;;;5.50;3.22;;;5.50;99.90;;;;;;7388546;19;20341;-82
2022/01/31 11:38:48;;;;;;;10.30;4.75;;;5.50;99.90;;;;;;7385266;19;20662;-81
2022/01/31 11:41:13;;;;;;;7.28;2.92;;;5.40;99.90;;;;;;7371573;19;20304;-81
2022/01/31 11:43:39;;;;;;;8.30;3.53;;;5.30;99.90;;;;;;7383901;19;20309;-82
2022/01/31 11:46:06;;;;;;;11.05;4.72;;;5.20;99.90;;;;;;7386475;19;20316;-84
2022/01/31 11:48:32;;;;;;;5.75;3.63;;;5.30;99.90;;;;;;7387120;19;21348;-82
2022/01/31 11:50:59;;;;;;;10.82;6.50;;;5.40;99.90;;;;;;7387233;19;20313;-81
2022/01/31 11:53:28;;;;;;;12.68;4.97;;;5.30;99.90;;;;;;7386347;19;20361;-85
2022/01/31 11:55:54;;;;;;;9.18;6.03;;;5.30;99.90;;;;;;7392190;19;20336;-82
2022/01/31 11:58:20;;;;;;;4.57;2.75;;;5.30;99.90;;;;;;7394314;19;20305;-82
2022/01/31 12:00:49;;;;;;;4.27;2.93;;;5.30;99.90;;;;;;7392890;19;20703;-81
2022/01/31 12:03:15;;;;;;;11.02;4.07;;;5.30;99.90;;;;;;7388233;19;21112;-83
2022/01/31 12:05:43;;;;;;;6.20;3.20;;;5.30;99.90;;;;;;7394901;19;20317;-82
2022/01/31 12:08:20;;;;;;;7.85;3.30;;;5.30;99.90;;;;;;7400648;19;20340;-83
2022/01/31 12:10:52;;;;;;;7.60;3.17;;;5.30;99.90;;;;;;7406954;19;20452;-90
2022/01/31 12:13:44;;;;;;;5.75;3.17;;;5.30;99.90;;;;;;7405103;19;20414;-83
2022/01/31 12:19:28;;;;;;;8.97;3.00;;;5.20;99.90;;;;;;7300524;19;2007383;-82
2022/01/31 12:22:00;;;;;;;5.40;3.50;;;5.40;99.90;;;;;;7402448;19;20371;-83
2022/01/31 12:24:37;;;;;;;5.50;2.90;;;5.40;99.90;;;;;;7404018;19;20340;-83
2022/01/31 12:27:10;;;;;;;7.38;3.08;;;5.40;99.90;;;;;;7404196;19;20497;-84
2022/01/31 12:29:38;;;;;;;9.70;4.97;;;5.40;99.90;;;;;;7403832;19;20352;-83
2022/01/31 12:32:16;;;;;;;7.68;3.33;;;5.30;99.90;;;;;;7404138;19;20309;-82
2022/01/31 12:34:50;;;;;;;7.70;3.25;;;5.30;99.90;;;;;;7400668;19;20327;-89
2022/01/31 12:37:17;;;;;;;6.80;3.30;;;5.40;99.90;;;;;;7400790;19;20319;-82
2022/01/31 12:39:45;;;;;;;3.97;2.80;;;5.50;99.90;;;;;;7402905;19;20373;-83
2022/01/31 12:42:44;;;;;;;6.45;3.00;;;5.40;99.90;;;;;;7408721;19;20312;-86
2022/01/31 12:45:14;;;;;;;10.10;3.40;;;5.40;99.90;;;;;;7302116;19;2005789;-82
2022/01/31 12:48:06;;;;;;;5.88;3.45;;;5.30;99.90;;;;;;7406510;19;20491;-85
2022/01/31 12:50:32;;;;;;;4.43;2.78;;;5.20;99.90;;;;;;7304717;19;2007632;-81
2022/01/31 12:53:03;;;;;;;6.72;3.42;;;5.20;99.90;;;;;;7401303;19;20316;-83
2022/01/31 12:55:30;;;;;;;5.68;2.88;;;5.20;99.90;;;;;;7401236;19;20340;-83
2022/01/31 12:57:56;;;;;;;10.68;3.10;;;5.20;99.90;;;;;;7403049;19;20328;-82
2022/01/31 13:00:32;;;;;;;9.73;3.58;;;5.20;99.90;;;;;;7404599;19;20309;-82
2022/01/31 13:02:58;;;;;;;6.55;3.25;;;5.20;99.90;;;;;;7298194;19;2004504;-82
2022/01/31 13:05:33;;;;;;;6.78;3.05;;;5.10;99.90;;;;;;7400780;19;20372;-86
2022/01/31 13:07:59;;;;;;;7.20;3.90;;;5.00;99.90;;;;;;7399023;19;20349;-81
2022/01/31 13:10:24;;;;;;;9.07;3.80;;;5.10;99.90;;;;;;7401643;19;20309;-83
2022/01/31 13:13:00;;;;;;;6.57;3.88;;;5.20;99.90;;;;;;7401481;19;20347;-82
2022/01/31 13:15:26;;;;;;;9.45;6.10;;;5.20;99.90;;;;;;7400624;19;20321;-82
2022/01/31 13:18:05;;;;;;;5.78;3.25;;;5.20;99.90;;;;;;7401955;19;20332;-82
2022/01/31 13:20:32;;;;;;;4.40;2.50;;;5.30;99.90;;;;;;7400269;19;20823;-82
2022/01/31 13:22:57;;;;;;;6.13;2.85;;;5.40;99.90;;;;;;7404340;19;20331;-83
2022/01/31 13:25:23;;;;;;;7.77;3.20;;;5.60;99.90;;;;;;7394450;19;20305;-83
2022/01/31 13:27:49;;;;;;;3.97;2.42;;;5.80;99.90;;;;;;7407535;19;20383;-83
2022/01/31 13:30:18;;;;;;;6.75;2.72;;;5.80;99.90;;;;;;7409329;19;20351;-85